createdAt,value
2022-08-25T00:01:36.121Z,101507.69
2022-08-25T00:04:11.015Z,101492.72
2022-08-25T00:06:41.771Z,101491.28
2022-08-25T00:09:16.077Z,101497.78
2022-08-25T00:11:48.213Z,101505.09
2022-08-25T00:14:21.313Z,101508.03
2022-08-25T00:16:51.523Z,101509.91
2022-08-25T00:19:24.341Z,101503.91
2022-08-25T00:21:54.569Z,101491.16
2022-08-25T00:24:27.652Z,101494.34
2022-08-25T00:27:01.867Z,101491.88
2022-08-25T00:29:38.100Z,101489.41
2022-08-25T00:32:08.606Z,101480.44
2022-08-25T00:34:40.705Z,101485.25
2022-08-25T00:37:11.993Z,101482.78
2022-08-25T00:39:44.824Z,101474.66
2022-08-25T00:42:16.996Z,101484.69
2022-08-25T00:44:47.026Z,101484.31
2022-08-25T00:47:17.691Z,101484.53
2022-08-25T00:49:50.902Z,101490.44
2022-08-25T00:52:24.367Z,101487.72
2022-08-25T00:55:08.128Z,101479.81
2022-08-25T00:57:41.582Z,101487.97
2022-08-25T01:00:16.248Z,101481.09
2022-08-25T01:02:46.556Z,101487.56
2022-08-25T01:05:17.647Z,101480.72
2022-08-25T01:07:50.464Z,101483.66
2022-08-25T01:10:25.904Z,101493.91
2022-08-25T01:13:01.270Z,101489.56
2022-08-25T01:15:32.781Z,101489.56
2022-08-25T01:18:02.792Z,101488.72
2022-08-25T01:20:34.826Z,101488.13
2022-08-25T01:23:08.094Z,101481.28
2022-08-25T01:25:48.622Z,101480.69
2022-08-25T01:28:20.028Z,101483.19
2022-08-25T01:30:50.204Z,101484.22
2022-08-25T01:33:20.127Z,101486.94
2022-08-25T01:35:50.339Z,101479.03
2022-08-25T01:38:23.084Z,101479.50
2022-08-25T01:40:53.139Z,101485.75
2022-08-25T01:43:33.175Z,101488.69
2022-08-25T01:46:03.259Z,101487.03
2022-08-25T01:48:33.579Z,101483.75
2022-08-25T01:51:03.554Z,101481.03
2022-08-25T01:53:35.985Z,101481.50
2022-08-25T01:56:12.928Z,101476.53
2022-08-25T01:58:44.783Z,101477.59
2022-08-25T02:01:18.305Z,101474.28
2022-08-25T02:03:50.809Z,101470.94
2022-08-25T02:06:29.727Z,101470.13
2022-08-25T02:09:05.343Z,101473.03
2022-08-25T02:11:35.972Z,101475.75
2022-08-25T02:14:06.729Z,101471.38
2022-08-25T02:16:39.002Z,101468.91
2022-08-25T02:19:11.301Z,101473.50
2022-08-25T02:21:41.723Z,101473.72
2022-08-25T02:24:14.970Z,101464.19
2022-08-25T02:26:45.009Z,101461.00
2022-08-25T02:29:14.927Z,101462.28
2022-08-25T02:31:44.760Z,101461.47
2022-08-25T02:34:15.394Z,101457.09
2022-08-25T02:36:46.779Z,101451.09
2022-08-25T02:39:19.295Z,101456.75
2022-08-25T02:41:49.231Z,101452.38
2022-08-25T02:44:19.241Z,101455.31
2022-08-25T02:46:49.078Z,101450.72
2022-08-25T02:49:19.018Z,101450.72
2022-08-25T02:51:48.844Z,101448.25
2022-08-25T02:54:21.283Z,101452.59
2022-08-25T02:56:51.394Z,101448.63
2022-08-25T02:59:21.285Z,101444.03
2022-08-25T03:01:51.175Z,101449.44
2022-08-25T03:04:21.112Z,101446.97
2022-08-25T03:06:51.220Z,101442.38
2022-08-25T03:09:23.559Z,101453.19
2022-08-25T03:11:53.440Z,101440.72
2022-08-25T03:14:23.913Z,101437.41
2022-08-25T03:16:53.856Z,101439.53
2022-08-25T03:19:24.849Z,101440.34
2022-08-25T03:21:56.410Z,101432.47
2022-08-25T03:24:29.922Z,101436.22
2022-08-25T03:26:57.155Z,101439.75
2022-08-25T03:29:32.659Z,101437.50
2022-08-25T03:32:03.507Z,101432.91
2022-08-25T03:34:34.432Z,101423.38
2022-08-25T03:37:05.709Z,101421.59
2022-08-25T03:39:38.307Z,101419.56
2022-08-25T03:42:08.611Z,101415.22
2022-08-25T03:44:38.638Z,101411.88
2022-08-25T03:47:09.240Z,101415.03
2022-08-25T03:49:39.474Z,101415.03
2022-08-25T03:52:09.634Z,101418.81
2022-08-25T03:54:42.260Z,101415.50
2022-08-25T03:57:12.139Z,101430.31
2022-08-25T03:59:41.993Z,101430.31
2022-08-25T04:02:12.086Z,101428.06
2022-08-25T04:04:42.005Z,101431.81
2022-08-25T04:07:11.810Z,101442.06
2022-08-25T04:09:44.274Z,101439.56
2022-08-25T04:12:14.087Z,101434.16
2022-08-25T04:14:44.658Z,101435.81
2022-08-25T04:17:14.480Z,101448.28
2022-08-25T04:19:44.510Z,101439.34
2022-08-25T04:22:14.698Z,101451.00
2022-08-25T04:24:47.144Z,101445.59
2022-08-25T04:27:17.022Z,101443.47
2022-08-25T04:29:46.872Z,101442.06
2022-08-25T04:32:16.708Z,101452.06
2022-08-25T04:34:46.583Z,101457.25
2022-08-25T04:37:16.969Z,101449.13
2022-08-25T04:39:49.457Z,101438.53
2022-08-25T04:42:19.393Z,101439.13
2022-08-25T04:44:49.715Z,101439.94
2022-08-25T04:47:19.541Z,101443.72
2022-08-25T04:49:49.394Z,101442.28
2022-08-25T04:52:19.542Z,101450.41
2022-08-25T04:54:52.077Z,101440.84
2022-08-25T04:57:21.877Z,101447.47
2022-08-25T04:59:52.143Z,101446.19
2022-08-25T05:02:22.313Z,101443.25
2022-08-25T05:04:52.269Z,101447.63
2022-08-25T05:07:22.189Z,101446.19
2022-08-25T05:09:54.551Z,101446.66
2022-08-25T05:12:24.469Z,101453.72
2022-08-25T05:14:55.480Z,101452.88
2022-08-25T05:17:25.336Z,101457.00
2022-08-25T05:19:55.110Z,101463.25
2022-08-25T05:22:24.908Z,101463.25
2022-08-25T05:24:57.414Z,101472.22
2022-08-25T05:27:30.118Z,101469.72
2022-08-25T05:30:00.010Z,101477.03
2022-08-25T05:32:29.861Z,101480.56
2022-08-25T05:34:59.690Z,101477.25
2022-08-25T05:37:29.627Z,101480.19
2022-08-25T05:40:02.043Z,101487.69
2022-08-25T05:42:31.910Z,101484.75
2022-08-25T05:45:01.772Z,101484.63
2022-08-25T05:47:31.669Z,101478.00
2022-08-25T05:50:01.480Z,101483.00
2022-08-25T05:52:31.390Z,101484.66
2022-08-25T05:55:03.873Z,101471.53
2022-08-25T05:57:33.709Z,101474.63
2022-08-25T06:00:04.801Z,101479.56
2022-08-25T06:02:46.499Z,101474.16
2022-08-25T06:05:18.854Z,101475.44
2022-08-25T06:07:49.770Z,101477.94
2022-08-25T06:10:22.631Z,101479.56
2022-08-25T06:12:52.531Z,101477.03
2022-08-25T06:15:25.143Z,101481.16
2022-08-25T06:18:01.650Z,101479.03
2022-08-25T06:20:34.766Z,101477.75
2022-08-25T06:23:04.677Z,101468.59
2022-08-25T06:25:37.218Z,101470.00
2022-08-25T06:28:07.370Z,101461.44
2022-08-25T06:30:37.274Z,101465.59
2022-08-25T06:33:07.265Z,101459.34
2022-08-25T06:35:37.324Z,101460.19
2022-08-25T06:38:07.429Z,101467.25
2022-08-25T06:40:40.128Z,101470.78
2022-08-25T06:43:10.002Z,101477.84
2022-08-25T06:45:40.158Z,101470.56
2022-08-25T06:48:09.956Z,101470.09
2022-08-25T06:50:42.083Z,101481.53
2022-08-25T06:53:12.056Z,101474.59
2022-08-25T06:55:45.211Z,101479.56
2022-08-25T06:58:15.065Z,101478.28
2022-08-25T07:00:44.905Z,101482.41
2022-08-25T07:03:14.900Z,101482.78
2022-08-25T07:05:44.844Z,101482.53
2022-08-25T07:08:14.680Z,101478.78
2022-08-25T07:10:47.138Z,101486.44
2022-08-25T07:13:18.273Z,101483.50
2022-08-25T07:15:48.243Z,101475.16
2022-08-25T07:18:18.363Z,101472.22
2022-08-25T07:20:48.626Z,101469.25
2022-08-25T07:23:18.792Z,101474.69
2022-08-25T07:25:51.522Z,101474.69
2022-08-25T07:28:22.919Z,101466.97
2022-08-25T07:31:00.991Z,101463.81
2022-08-25T07:33:30.923Z,101467.72
2022-08-25T07:35:58.214Z,101465.97
2022-08-25T07:38:28.946Z,101457.00
2022-08-25T07:41:21.723Z,101460.53
2022-08-25T07:43:51.770Z,101455.72
2022-08-25T07:46:21.747Z,101454.41
2022-08-25T07:48:53.093Z,101463.38
2022-08-25T07:51:23.394Z,101459.59
2022-08-25T07:53:53.456Z,101458.78
2022-08-25T07:56:25.900Z,101467.75
2022-08-25T07:58:58.993Z,101466.44
2022-08-25T08:01:29.124Z,101459.97
2022-08-25T08:04:03.407Z,101455.97
2022-08-25T08:06:33.783Z,101461.53
2022-08-25T08:09:03.939Z,101455.44
2022-08-25T08:11:53.672Z,101457.91
2022-08-25T08:14:24.136Z,101451.53
2022-08-25T08:16:54.177Z,101453.19
2022-08-25T08:19:24.706Z,101442.00
2022-08-25T08:21:54.569Z,101442.72
2022-08-25T08:24:44.615Z,101449.91
2022-08-25T08:27:19.760Z,101443.72
2022-08-25T08:29:52.314Z,101452.31
2022-08-25T08:32:25.226Z,101450.31
2022-08-25T08:35:05.709Z,101448.06
2022-08-25T08:37:39.780Z,101448.63
2022-08-25T08:40:12.137Z,101441.09
2022-08-25T08:42:56.504Z,101450.88
2022-08-25T08:45:43.702Z,101447.09
2022-08-25T08:48:30.041Z,101449.22
2022-08-25T08:51:09.746Z,101446.28
2022-08-25T08:53:46.508Z,101450.41
2022-08-25T08:56:19.450Z,101439.69
2022-08-25T08:58:56.552Z,101436.00
2022-08-25T09:01:30.714Z,101425.00
2022-08-25T09:04:13.703Z,101430.78
2022-08-25T09:06:48.014Z,101436.09
2022-08-25T09:09:23.163Z,101431.50
2022-08-25T09:11:59.522Z,101440.38
2022-08-25T09:14:44.453Z,101437.28
2022-08-25T09:17:22.602Z,101434.13
2022-08-25T09:20:18.959Z,101431.63
2022-08-25T09:22:57.659Z,101431.84
2022-08-25T09:25:53.543Z,101417.47
2022-08-25T09:28:29.013Z,101418.59
2022-08-25T09:31:04.140Z,101428.78
2022-08-25T09:33:36.586Z,101418.28
2022-08-25T09:36:08.831Z,101413.16
2022-08-25T09:38:40.135Z,101415.91
2022-08-25T09:41:11.529Z,101418.28
2022-08-25T09:43:45.044Z,101417.81
2022-08-25T09:46:20.776Z,101406.75
2022-08-25T09:48:56.568Z,101399.72
2022-08-25T09:51:37.868Z,101403.50
2022-08-25T09:54:25.421Z,101399.16
2022-08-25T09:57:05.618Z,101402.09
2022-08-25T09:59:39.972Z,101395.59
2022-08-25T10:02:32.595Z,101398.75
2022-08-25T10:05:02.591Z,101401.53
2022-08-25T10:07:38.122Z,101393.28
2022-08-25T10:10:21.559Z,101393.53
2022-08-25T10:12:51.740Z,101385.69
2022-08-25T10:15:29.703Z,101379.91
2022-08-25T10:18:22.555Z,101386.16
2022-08-25T10:21:10.434Z,101392.69
2022-08-25T10:23:44.847Z,101376.91
2022-08-25T10:26:25.854Z,101379.63
2022-08-25T10:29:14.218Z,101369.63
2022-08-25T10:31:52.026Z,101374.31
2022-08-25T10:34:37.235Z,101373.78
2022-08-25T10:37:16.081Z,101380.09
2022-08-25T10:39:54.851Z,101380.75
2022-08-25T10:42:36.625Z,101377.06
2022-08-25T10:45:29.521Z,101375.34
2022-08-25T10:48:30.338Z,101375.09
2022-08-25T10:51:13.593Z,101359.31
2022-08-25T10:53:58.476Z,101358.88
2022-08-25T10:56:34.814Z,101343.13
2022-08-25T10:59:32.436Z,101339.59
2022-08-25T11:02:29.169Z,101341.28
2022-08-25T11:05:06.882Z,101324.94
2022-08-25T11:07:43.988Z,101334.16
2022-08-25T11:10:18.453Z,101324.91
2022-08-25T11:12:54.556Z,101330.00
2022-08-25T11:15:28.974Z,101325.56
2022-08-25T11:18:05.564Z,101315.50
2022-08-25T11:20:57.429Z,101310.19
2022-08-25T11:23:34.348Z,101317.56
2022-08-25T11:26:14.132Z,101317.06
2022-08-25T11:28:55.072Z,101315.44
2022-08-25T11:31:28.042Z,101306.66
2022-08-25T11:33:59.641Z,101315.97
2022-08-25T11:36:33.935Z,101302.84
2022-08-25T11:39:18.252Z,101307.78
2022-08-25T11:42:01.593Z,101293.28
2022-08-25T11:44:53.233Z,101305.56
2022-08-25T11:47:36.998Z,101298.41
2022-08-25T11:50:10.762Z,101296.75
2022-08-25T11:52:51.174Z,101296.41
2022-08-25T11:55:26.011Z,101295.28
2022-08-25T11:58:23.394Z,101288.94
2022-08-25T12:00:56.882Z,101288.13
2022-08-25T12:03:50.678Z,101283.44
2022-08-25T12:06:28.270Z,101274.41
2022-08-25T12:09:23.357Z,101271.41
2022-08-25T12:11:58.435Z,101269.63
2022-08-25T12:14:55.339Z,101267.66
2022-08-25T12:17:29.689Z,101265.16
2022-08-25T12:20:02.024Z,101261.03
2022-08-25T12:22:55.827Z,101259.41
2022-08-25T12:25:43.604Z,101256.91
2022-08-25T12:28:41.327Z,101258.22
2022-08-25T12:31:23.050Z,101255.69
2022-08-25T12:34:05.463Z,101249.88
2022-08-25T12:36:37.822Z,101255.06
2022-08-25T12:39:24.350Z,101245.88
2022-08-25T12:44:42.821Z,101235.38
2022-08-25T12:47:31.955Z,101232.22
2022-08-25T12:50:39.246Z,101226.19
2022-08-25T12:53:20.436Z,101226.19
2022-08-25T12:55:54.451Z,101220.69
2022-08-25T12:58:38.632Z,101226.16
2022-08-25T13:01:35.604Z,101216.88
2022-08-25T13:04:37.254Z,101213.06
2022-08-25T13:07:26.030Z,101213.09
2022-08-25T13:10:18.592Z,101209.84
2022-08-25T13:13:05.934Z,101218.56
2022-08-25T13:15:39.900Z,101215.03
2022-08-25T13:18:35.208Z,101219.72
2022-08-25T13:21:10.947Z,101213.66
2022-08-25T13:23:45.821Z,101217.50
2022-08-25T13:26:19.747Z,101203.59
2022-08-25T13:28:56.892Z,101210.69
2022-08-25T13:31:28.412Z,101217.53
2022-08-25T13:34:05.311Z,101211.78
2022-08-25T13:36:58.785Z,101208.47
2022-08-25T13:39:52.623Z,101203.56
2022-08-25T13:42:20.691Z,101199.97
2022-08-25T13:44:58.549Z,101193.66
2022-08-25T13:47:43.655Z,101194.44
2022-08-25T13:50:26.493Z,101187.88
2022-08-25T13:52:59.004Z,101182.41
2022-08-25T13:55:50.782Z,101176.41
2022-08-25T13:58:39.335Z,101175.88
2022-08-25T14:01:23.167Z,101170.97
2022-08-25T14:04:29.582Z,101179.97
2022-08-25T14:07:34.127Z,101169.84
2022-08-25T14:10:07.274Z,101172.03
2022-08-25T14:12:41.088Z,101166.59
2022-08-25T14:15:16.562Z,101171.78
2022-08-25T14:17:48.954Z,101176.13
2022-08-25T14:20:25.722Z,101162.22
2022-08-25T14:23:01.779Z,101159.19
2022-08-25T14:25:33.145Z,101153.47
2022-08-25T14:28:07.176Z,101159.19
2022-08-25T14:30:46.399Z,101150.19
2022-08-25T14:33:17.950Z,101149.09
2022-08-25T14:35:52.736Z,101149.91
2022-08-25T14:38:26.616Z,101140.91
2022-08-25T14:40:59.067Z,101145.28
2022-08-25T14:43:33.372Z,101135.72
2022-08-25T14:46:06.038Z,101140.38
2022-08-25T14:48:43.766Z,101127.53
2022-08-25T14:51:14.829Z,101128.91
2022-08-25T14:53:47.702Z,101127.53
2022-08-25T14:56:17.794Z,101125.09
2022-08-25T14:58:48.371Z,101127.28
2022-08-25T15:01:28.985Z,101124.53
2022-08-25T15:04:04.545Z,101120.16
2022-08-25T15:06:36.494Z,101113.06
2022-08-25T15:09:11.525Z,101121.53
2022-08-25T15:11:46.044Z,101109.78
2022-08-25T15:14:17.741Z,101110.34
2022-08-25T15:16:50.231Z,101107.34
2022-08-25T15:19:23.541Z,101101.63
2022-08-25T15:21:54.324Z,101103.25
2022-08-25T15:24:33.942Z,101104.63
2022-08-25T15:27:10.123Z,101095.88
2022-08-25T15:29:40.938Z,101099.44
2022-08-25T15:32:12.501Z,101104.34
2022-08-25T15:34:42.337Z,101101.88
2022-08-25T15:37:14.738Z,101099.44
2022-08-25T15:39:49.249Z,101093.97
2022-08-25T15:42:19.462Z,101089.34
2022-08-25T15:44:53.081Z,101079.25
2022-08-25T15:47:24.180Z,101089.06
2022-08-25T15:50:01.814Z,101090.97
2022-08-25T15:52:46.196Z,101083.34
2022-08-25T15:55:21.292Z,101084.69
2022-08-25T15:57:51.394Z,101078.97
2022-08-25T16:00:22.796Z,101079.22
2022-08-25T16:02:53.525Z,101066.91
2022-08-25T16:05:26.010Z,101063.38
2022-08-25T16:07:56.230Z,101063.38
2022-08-25T16:10:29.215Z,101054.63
2022-08-25T16:12:59.047Z,101060.91
2022-08-25T16:15:29.085Z,101050.81
2022-08-25T16:18:01.237Z,101050.28
2022-08-25T16:20:31.847Z,101051.09
2022-08-25T16:23:04.140Z,101044.28
2022-08-25T16:25:36.707Z,101050.22
2022-08-25T16:28:07.055Z,101048.09
2022-08-25T16:30:37.013Z,101048.31
2022-08-25T16:33:07.486Z,101044.78
2022-08-25T16:35:40.692Z,101037.69
2022-08-25T16:38:12.608Z,101031.69
2022-08-25T16:40:45.951Z,101038.78
2022-08-25T16:43:17.738Z,101034.41
2022-08-25T16:45:47.556Z,101028.13
2022-08-25T16:48:17.443Z,101035.78
2022-08-25T16:50:47.811Z,101022.41
2022-08-25T16:53:33.596Z,101037.13
2022-08-25T16:56:09.708Z,101034.66
2022-08-25T16:58:41.265Z,101022.94
2022-08-25T17:01:12.931Z,101034.94
2022-08-25T17:03:44.841Z,101030.59
2022-08-25T17:06:15.270Z,101024.31
2022-08-25T17:08:45.878Z,101028.13
2022-08-25T17:11:20.600Z,101022.13
2022-08-25T17:13:54.039Z,101028.38
2022-08-25T17:16:29.901Z,101031.66
2022-08-25T17:19:04.018Z,101030.28
2022-08-25T17:21:37.413Z,101035.16
2022-08-25T17:24:08.048Z,101037.06
2022-08-25T17:26:44.632Z,101032.16
2022-08-25T17:29:14.585Z,101031.31
2022-08-25T17:31:46.367Z,101028.31
2022-08-25T17:34:22.485Z,101035.94
2022-08-25T17:36:54.564Z,101037.03
2022-08-25T17:39:25.273Z,101033.47
2022-08-25T17:41:57.770Z,101022.56
2022-08-25T17:44:29.456Z,101022.56
2022-08-25T17:47:00.013Z,101029.94
2022-08-25T17:49:30.249Z,101033.47
2022-08-25T17:52:01.087Z,101037.56
2022-08-25T17:54:31.219Z,101032.09
2022-08-25T17:57:04.417Z,101038.63
2022-08-25T17:59:34.771Z,101028.81
2022-08-25T18:02:04.901Z,101033.72
2022-08-25T18:04:35.115Z,101040.25
2022-08-25T18:07:07.902Z,101040.53
2022-08-25T18:09:37.679Z,101038.06
2022-08-25T18:12:10.712Z,101042.94
2022-08-25T18:14:41.938Z,101043.19
2022-08-25T18:17:21.943Z,101045.38
2022-08-25T18:19:52.830Z,101054.91
2022-08-25T18:22:23.209Z,101053.50
2022-08-25T18:24:53.193Z,101061.66
2022-08-25T18:27:28.502Z,101059.22
2022-08-25T18:29:58.941Z,101056.75
2022-08-25T18:32:29.295Z,101054.56
2022-08-25T18:34:59.692Z,101051.53
2022-08-25T18:37:42.163Z,101049.91
2022-08-25T18:40:26.208Z,101054.81
2022-08-25T18:43:00.419Z,101056.16
2022-08-25T18:45:32.750Z,101052.88
2022-08-25T18:48:03.653Z,101060.78
2022-08-25T18:50:38.645Z,101056.69
2022-08-25T18:53:08.917Z,101062.13
2022-08-25T18:55:40.353Z,101061.84
2022-08-25T18:58:14.451Z,101061.28
2022-08-25T19:00:46.021Z,101066.19
2022-08-25T19:03:17.385Z,101069.97
2022-08-25T19:05:49.374Z,101069.44
2022-08-25T19:08:27.816Z,101071.59
2022-08-25T19:10:57.640Z,101071.03
2022-08-25T19:13:30.072Z,101064.19
2022-08-25T19:16:00.134Z,101065.25
2022-08-25T19:18:30.266Z,101070.16
2022-08-25T19:21:00.864Z,101072.06
2022-08-25T19:23:31.124Z,101063.59
2022-08-25T19:26:01.775Z,101070.13
2022-08-25T19:28:36.387Z,101074.44
2022-08-25T19:31:08.260Z,101065.72
2022-08-25T19:33:44.717Z,101063.22
2022-08-25T19:36:15.962Z,101063.22
2022-08-25T19:38:46.485Z,101063.19
2022-08-25T19:41:16.331Z,101067.25
2022-08-25T19:43:56.069Z,101071.59
2022-08-25T19:46:32.274Z,101075.13
2022-08-25T19:49:07.591Z,101069.13
2022-08-25T19:51:39.663Z,101067.22
2022-08-25T19:54:10.777Z,101071.28
2022-08-25T19:56:53.695Z,101067.19
2022-08-25T19:59:40.364Z,101064.72
2022-08-25T20:02:16.728Z,101073.97
2022-08-25T20:04:49.786Z,101068.53
2022-08-25T20:07:22.893Z,101063.56
2022-08-25T20:09:54.110Z,101067.38
2022-08-25T20:12:39.526Z,101064.91
2022-08-25T20:15:13.712Z,101062.47
2022-08-25T20:17:46.838Z,101064.63
2022-08-25T20:20:21.800Z,101064.59
2022-08-25T20:22:52.877Z,101065.66
2022-08-25T20:25:23.307Z,101071.38
2022-08-25T20:27:55.715Z,101068.09
2022-08-25T20:30:31.711Z,101065.06
2022-08-25T20:33:02.674Z,101068.34
2022-08-25T20:35:32.677Z,101067.78
2022-08-25T20:38:02.612Z,101060.69
2022-08-25T20:40:33.560Z,101071.84
2022-08-25T20:43:04.880Z,101060.66
2022-08-25T20:45:45.069Z,101066.91
2022-08-25T20:48:14.875Z,101054.38
2022-08-25T20:50:44.690Z,101051.94
2022-08-25T20:53:15.323Z,101062.00
2022-08-25T20:55:45.688Z,101048.66
2022-08-25T20:58:17.099Z,101052.44
2022-08-25T21:00:49.737Z,101055.09
2022-08-25T21:03:19.741Z,101056.13
2022-08-25T21:05:54.042Z,101051.22
2022-08-25T21:08:25.560Z,101050.66
2022-08-25T21:10:55.428Z,101045.72
2022-08-25T21:13:25.293Z,101050.34
2022-08-25T21:15:59.089Z,101051.94
2022-08-25T21:18:31.635Z,101050.03
2022-08-25T21:21:11.140Z,101049.75
2022-08-25T21:23:41.264Z,101044.31
2022-08-25T21:26:16.435Z,101042.09
2022-08-25T21:28:47.636Z,101048.34
2022-08-25T21:31:24.712Z,101047.78
2022-08-25T21:33:56.609Z,101051.59
2022-08-25T21:36:29.083Z,101055.63
2022-08-25T21:39:01.375Z,101045.03
2022-08-25T21:41:33.622Z,101050.72
2022-08-25T21:44:04.519Z,101046.91
2022-08-25T21:46:39.048Z,101049.59
2022-08-25T21:49:10.785Z,101041.69
2022-08-25T21:51:44.590Z,101041.13
2022-08-25T21:54:17.650Z,101040.31
2022-08-25T21:56:51.998Z,101038.41
2022-08-25T21:59:24.243Z,101038.63
2022-08-25T22:01:57.992Z,101037.81
2022-08-25T22:04:28.498Z,101036.16
2022-08-25T22:07:02.506Z,101037.00
2022-08-25T22:09:33.753Z,101027.19
2022-08-25T22:12:03.618Z,101028.84
2022-08-25T22:14:33.920Z,101029.09
2022-08-25T22:17:10.058Z,101018.22
2022-08-25T22:19:43.824Z,101017.13
2022-08-25T22:22:15.806Z,101019.03
2022-08-25T22:24:50.803Z,101010.31
2022-08-25T22:27:23.538Z,101008.69
2022-08-25T22:29:53.870Z,101011.66
2022-08-25T22:32:26.340Z,101002.94
2022-08-25T22:34:56.542Z,101008.38
2022-08-25T22:37:26.335Z,101004.00
2022-08-25T22:39:56.192Z,101007.81
2022-08-25T22:42:27.217Z,101007.25
2022-08-25T22:44:57.069Z,101006.41
2022-08-25T22:47:29.791Z,101003.41
2022-08-25T22:50:01.023Z,101006.09
2022-08-25T22:52:33.717Z,100996.31
2022-08-25T22:55:05.571Z,100996.81
2022-08-25T22:57:41.408Z,100993.28
2022-08-25T23:00:14.220Z,101002.78
2022-08-25T23:02:47.553Z,100997.34
2022-08-25T23:05:18.047Z,100990.25
2022-08-25T23:07:47.852Z,100994.06
2022-08-25T23:10:17.723Z,100992.38
2022-08-25T23:12:47.710Z,100988.84
2022-08-25T23:15:17.604Z,100990.75
2022-08-25T23:17:50.657Z,100983.94
2022-08-25T23:20:33.178Z,100988.28
2022-08-25T23:23:03.078Z,100984.75
2022-08-25T23:25:33.194Z,100981.47
2022-08-25T23:28:03.410Z,100979.81
2022-08-25T23:30:33.375Z,100975.94
2022-08-25T23:33:06.101Z,100967.22
2022-08-25T23:35:36.246Z,100968.88
2022-08-25T23:38:06.502Z,100967.22
2022-08-25T23:40:36.343Z,100967.22
2022-08-25T23:43:06.449Z,100961.22
2022-08-25T23:45:36.436Z,100965.03
2022-08-25T23:48:10.587Z,100970.97
2022-08-25T23:50:43.598Z,100962.81
2022-08-25T23:53:13.628Z,100964.47
2022-08-25T23:55:51.184Z,100955.75
2022-08-25T23:58:24.063Z,100960.59
